Bilbao, Spain

5:21 PM CET on February 10, 2016 (GMT +0100)
Campo Volantin | | Change Station
CLOSE
Current Station
Personal Weather Station
Location: Bilbao, PAS VASCO
Elevation: 200 ft
Nearby Weather Stations

Elev 200 ft 43.27 °N, 2.93 °W | Updated 11 minutes ago

Light Rain
Light Rain
47.7 °F
Feels Like 48 °F
N
0.0
Wind Variable Wind from SW
Gusts 1.0 mph

Today
High -- | Low -- °F
--% Chance of Precip.
Yesterday
High -- | Low -- °F
Precip. -- in
Pressure 29.86 in
Visibility 3.7 miles
Clouds Scattered Clouds 1500 ft
Scattered Clouds 3000 ft
Overcast 3500 ft
Windchill 48 °F
Dew Point 45 °F
Humidity 91%
Rainfall 0.72 in
Snow Depth Not available.
8:17 AM 6:34 PM
Waxing Crescent, 6% visible
METAR LEBB 101600Z 00000KT 6000 -RA SCT015 SCT030 OVC035 09/07 Q1011 TEMPO 2000 RA
Pressure 29.86 in
Visibility 3.7 miles
Clouds Scattered Clouds 1500 ft
Scattered Clouds 3000 ft
Overcast 3500 ft
Windchill 48 °F
Dew Point 45 °F
Humidity 91%
Rainfall 0.72 in
Snow Depth Not available.
8:17 AM 6:34 PM
Waxing Crescent, 6% visible
METAR LEBB 101600Z 00000KT 6000 -RA SCT015 SCT030 OVC035 09/07 Q1011 TEMPO 2000 RA

10-Day Weather Forecast

Almanac

Astronomy

Feb. 10, 2016 Rise Set
Actual Time
Civil Twilight
Nautical Twilight
Astronomical Twilight
Moon
Length of Visible Light
Length of Day
Tomorrow will be .
, % of the Moon is Illuminated

Today's Extremes

Country Highs Country Lows

Community

WunderPhotos

Upload Photos

1,891,881 photos uploaded!

WunderBlog® & News

Nearby

Air Quality

  Air Quality AQ Index Pollutant
Not available.

Snow Depth

Station Depth Elevation

Earthquake Activity

City Distance Mag. Time & Date
Minimum magnitude displayed is 2.5.

Coastal Water Temperatures

Place Temperature

Stations

Nearby Weather Stations

Station Location Temp. Windchill Dew Point Humidity Wind Precip. Elev Updated Type